Saint-Pierre の空港の天気 - METARとTAF

サンピエール空港 ( LFVP / FSP ) - サンピエール島・ミクロン島 Saint-Pierre
飛行場実況気象(Metar)
観測時間09/22 15:00 PMDT (09/22 17:00 UTC)
風向・風速東 11m/s
視程10km以上
天気現象弱い雨
全天の8割程度の雲 雲底高度 700m
全天を覆う雲 雲底高度 1710m
気温11℃
湿度94%
気圧1022hPa
METARLFVP 221700Z 10021KT 9999 -RA BKN023 OVC056 11/10 Q1022 NOSIG
過去の天気等 Google飛行場航空写真 Wunderground天気予報

過去48時間のMETAR

飛行場予報(TAF)
発表時間: 9/22 12:00 PMDT (9/22 14:00 UTC)
予報対象時間: 22日13時 PMDT ~ 22日22時 PMDT
風向・風速東 10m/s 瞬間風速 15m/s
視程10km以上
天気現象弱い雨
全天を覆う雲 雲底高度 2130m
22日13時 PMDT ~ 22日16時 PMDT に徐々に
風向・風速東 13m/s 瞬間風速 18m/s
視程6000m
天気現象弱い雨
全天の8割程度の雲 雲底高度 460m
全天を覆う雲 雲底高度 1830m
22日16時 PMDT ~ 22日19時 PMDT に徐々に
風向・風速東 15m/s 瞬間風速 21m/s
視程3000m
天気現象雨 もや
全天の8割程度の雲 雲底高度 180m
全天を覆う雲 雲底高度 460m
22日19時 PMDT ~ 22日22時 PMDT に一時的に
視程1200m
天気現象雨 もや
全天を覆う雲 雲底高度 90m
TAF LFVP 221400Z 2215/2224 09020G30KT 9999 -RA OVC070
BECMG 2215/2218 10025G35KT 6000 -RA BKN015 OVC060
BECMG 2218/2221 09030G40KT 3000 RA BR BKN006 OVC015
TEMPO 2221/2224 1200 RA BR OVC003